Time;durP1;ratioP1;P1;durP2;ratioP2;P2;SDS_P1;SDS_P2;PMS_P1;PMS_P2;Temp;Humidity;BMP_temperature;BMP_pressure;BME280_temperature;BME280_humidity;BME280_pressure;Samples;Min_cycle;Max_cycle;Signal;HPM_P1;HPM_P2
2021/09/02 00:01:44;;;;;;;;;;;23.20;57.30;;;;;;4989597;28;19925;-62
2021/09/02 00:04:11;;;;;;;;;;;23.20;57.30;;;;;;4989146;28;19936;-62
2021/09/02 00:06:38;;;;;;;;;;;23.10;57.20;;;;;;4989033;28;19926;-62
2021/09/02 00:09:05;;;;;;;;;;;23.20;57.30;;;;;;4990368;28;19926;-62
2021/09/02 00:11:32;;;;;;;;;;;23.10;57.20;;;;;;4990100;28;19926;-62
2021/09/02 00:13:59;;;;;;;;;;;23.10;57.20;;;;;;4988867;28;19926;-62
2021/09/02 00:16:26;;;;;;;;;;;23.20;57.30;;;;;;4989008;28;20012;-62
2021/09/02 00:18:53;;;;;;;;;;;23.10;57.20;;;;;;4990289;28;19926;-62
2021/09/02 00:21:20;;;;;;;;;;;23.10;57.20;;;;;;4989913;28;19930;-62
2021/09/02 00:23:47;;;;;;;;;;;23.10;57.10;;;;;;4989123;28;20374;-62
2021/09/02 00:26:14;;;;;;;;;;;23.10;57.10;;;;;;4989158;28;19980;-62
2021/09/02 00:28:41;;;;;;;;;;;23.10;57.10;;;;;;4990005;28;20334;-62
2021/09/02 00:31:08;;;;;;;;;;;23.10;57.10;;;;;;4989954;28;19969;-62
2021/09/02 00:33:35;;;;;;;;;;;23.10;57.10;;;;;;4989104;28;19972;-62
2021/09/02 00:36:02;;;;;;;;;;;23.10;57.10;;;;;;4989028;28;19983;-62
2021/09/02 00:38:29;;;;;;;;;;;23.10;57.10;;;;;;4990269;28;20016;-62
2021/09/02 00:40:57;;;;;;;;;;;23.10;57.10;;;;;;4990138;28;19972;-62
2021/09/02 00:43:24;;;;;;;;;;;23.00;57.00;;;;;;4989115;28;20088;-62
2021/09/02 00:45:51;;;;;;;;;;;23.10;57.00;;;;;;4990282;28;19930;-62
2021/09/02 00:48:18;;;;;;;;;;;23.10;57.10;;;;;;4989495;28;20386;-62
2021/09/02 00:50:45;;;;;;;;;;;23.10;57.00;;;;;;5004692;28;19926;-62
2021/09/02 00:53:11;;;;;;;;;;;23.00;56.90;;;;;;4989454;28;20416;-62
2021/09/02 00:55:38;;;;;;;;;;;23.10;57.00;;;;;;4989248;28;20005;-61
2021/09/02 00:58:05;;;;;;;;;;;23.10;57.00;;;;;;4989523;28;19968;-62
2021/09/02 01:00:32;;;;;;;;;;;23.00;56.90;;;;;;4992107;28;19930;-62
2021/09/02 01:02:59;;;;;;;;;;;23.10;57.00;;;;;;4992229;28;20267;-62
2021/09/02 01:05:27;;;;;;;;;;;23.00;56.90;;;;;;4992394;28;19926;-62
2021/09/02 01:07:54;;;;;;;;;;;23.00;56.90;;;;;;4992828;28;19972;-62
2021/09/02 01:10:21;;;;;;;;;;;23.00;56.80;;;;;;4991958;28;19929;-62
2021/09/02 01:12:49;;;;;;;;;;;23.00;56.80;;;;;;4991594;28;20396;-62
2021/09/02 01:15:21;;;;;;;;;;;23.00;56.90;;;;;;4991865;28;20438;-62
2021/09/02 01:17:49;;;;;;;;;;;23.00;56.80;;;;;;4991545;28;19926;-62
2021/09/02 01:20:17;;;;;;;;;;;23.00;56.80;;;;;;4991428;28;19961;-62
2021/09/02 01:22:51;;;;;;;;;;;23.00;56.80;;;;;;4992492;28;20324;-62
2021/09/02 01:25:20;;;;;;;;;;;23.00;56.80;;;;;;4991686;28;19926;-62
2021/09/02 01:27:51;;;;;;;;;;;23.00;56.80;;;;;;4992428;28;19972;-62
2021/09/02 01:30:19;;;;;;;;;;;23.00;56.80;;;;;;4991591;28;19926;-62
2021/09/02 01:32:47;;;;;;;;;;;23.00;56.80;;;;;;4992591;28;20005;-61
2021/09/02 01:35:14;;;;;;;;;;;23.00;56.80;;;;;;4992469;28;19930;-62
2021/09/02 01:37:43;;;;;;;;;;;23.00;56.70;;;;;;4991428;28;20377;-62
2021/09/02 01:40:17;;;;;;;;;;;23.00;56.70;;;;;;4975787;28;19930;-62
2021/09/02 01:42:45;;;;;;;;;;;23.00;56.70;;;;;;4976335;28;19933;-62
2021/09/02 01:45:12;;;;;;;;;;;23.00;56.70;;;;;;4992563;28;19926;-62
2021/09/02 01:47:40;;;;;;;;;;;23.00;56.70;;;;;;4992624;28;20012;-62
2021/09/02 01:50:07;;;;;;;;;;;23.00;56.70;;;;;;4992167;28;20013;-62
2021/09/02 01:52:34;;;;;;;;;;;23.00;56.70;;;;;;4991256;28;19933;-62
2021/09/02 01:55:02;;;;;;;;;;;23.00;56.70;;;;;;4992217;28;20325;-62
2021/09/02 01:57:30;;;;;;;;;;;23.00;56.70;;;;;;4991629;28;20013;-62
2021/09/02 01:59:57;;;;;;;;;;;23.00;57.30;;;;;;4992018;28;19926;-62
2021/09/02 02:02:24;;;;;;;;;;;23.00;56.70;;;;;;4991013;28;19932;-61
2021/09/02 02:04:51;;;;;;;;;;;23.00;56.70;;;;;;4991010;28;19929;-61
2021/09/02 02:07:18;;;;;;;;;;;23.00;56.70;;;;;;4990751;28;20005;-62
2021/09/02 02:09:45;;;;;;;;;;;23.00;56.60;;;;;;4991116;28;19979;-62
2021/09/02 02:12:12;;;;;;;;;;;23.00;56.70;;;;;;4991924;28;19980;-62
2021/09/02 02:14:39;;;;;;;;;;;23.00;56.60;;;;;;4992230;28;19956;-62
2021/09/02 02:17:06;;;;;;;;;;;23.00;56.70;;;;;;4990610;28;20427;-62
2021/09/02 02:19:33;;;;;;;;;;;23.00;56.70;;;;;;4991943;28;19975;-62
2021/09/02 02:22:00;;;;;;;;;;;23.00;56.70;;;;;;4991569;28;20012;-62
2021/09/02 02:24:27;;;;;;;;;;;23.00;56.70;;;;;;4990821;28;20012;-62
2021/09/02 02:26:54;;;;;;;;;;;23.00;56.70;;;;;;4991459;28;20016;-62
2021/09/02 02:29:21;;;;;;;;;;;23.00;56.70;;;;;;4974497;28;20393;-62
2021/09/02 02:31:48;;;;;;;;;;;23.00;56.70;;;;;;4990360;28;19933;-62
2021/09/02 02:34:16;;;;;;;;;;;23.00;56.60;;;;;;4991492;28;19934;-62
2021/09/02 02:36:43;;;;;;;;;;;23.00;56.60;;;;;;4991826;28;19968;-62
2021/09/02 02:39:10;;;;;;;;;;;23.00;56.70;;;;;;4973191;28;19926;-62
2021/09/02 02:41:37;;;;;;;;;;;23.00;56.60;;;;;;4991524;28;19926;-61
2021/09/02 02:44:04;;;;;;;;;;;23.00;56.70;;;;;;4990768;28;19925;-61
2021/09/02 02:46:31;;;;;;;;;;;22.90;56.50;;;;;;4990285;28;19937;-61
2021/09/02 02:48:58;;;;;;;;;;;23.00;56.60;;;;;;4990410;28;20025;-62
2021/09/02 02:51:25;;;;;;;;;;;23.00;56.60;;;;;;4991066;28;20436;-62
2021/09/02 02:53:52;;;;;;;;;;;23.00;56.60;;;;;;4990151;28;19976;-62
2021/09/02 02:56:19;;;;;;;;;;;22.90;56.50;;;;;;4991119;28;19926;-61
2021/09/02 02:58:48;;;;;;;;;;;23.00;56.60;;;;;;4991100;28;19925;-62
2021/09/02 03:01:15;;;;;;;;;;;23.00;56.60;;;;;;4990316;28;20316;-62
2021/09/02 03:03:42;;;;;;;;;;;22.90;56.50;;;;;;4991375;28;20327;-62
2021/09/02 03:06:10;;;;;;;;;;;22.90;56.50;;;;;;4990993;28;20381;-62
2021/09/02 03:08:37;;;;;;;;;;;23.00;56.50;;;;;;4991193;28;20344;-62
2021/09/02 03:11:04;;;;;;;;;;;23.00;56.50;;;;;;4991237;28;20345;-62
2021/09/02 03:13:31;;;;;;;;;;;22.90;56.50;;;;;;4990982;28;19926;-62
2021/09/02 03:15:58;;;;;;;;;;;22.90;56.50;;;;;;4991016;28;19937;-62
2021/09/02 03:18:25;;;;;;;;;;;23.00;56.50;;;;;;4972515;28;19926;-62
2021/09/02 03:20:52;;;;;;;;;;;22.90;56.40;;;;;;4990635;28;19929;-62
2021/09/02 03:23:18;;;;;;;;;;;22.90;56.40;;;;;;4989447;28;19932;-62
2021/09/02 03:25:45;;;;;;;;;;;22.90;56.40;;;;;;4991092;28;19972;-62
2021/09/02 03:28:12;;;;;;;;;;;22.90;56.40;;;;;;4990829;28;19980;-62
2021/09/02 03:30:39;;;;;;;;;;;22.90;56.40;;;;;;4990543;28;20369;-62
2021/09/02 03:33:06;;;;;;;;;;;22.90;56.40;;;;;;4990978;28;20083;-62
2021/09/02 03:35:33;;;;;;;;;;;22.90;56.40;;;;;;4990487;28;19926;-62
2021/09/02 03:38:00;;;;;;;;;;;22.90;56.30;;;;;;4990726;28;20001;-62
2021/09/02 03:40:27;;;;;;;;;;;22.90;56.40;;;;;;4989605;28;19926;-62
2021/09/02 03:42:54;;;;;;;;;;;22.90;56.30;;;;;;4988676;28;19926;-62
2021/09/02 03:45:21;;;;;;;;;;;22.90;56.30;;;;;;4989284;28;19926;-62
2021/09/02 03:47:49;;;;;;;;;;;22.90;56.30;;;;;;4989722;28;20282;-62
2021/09/02 03:50:16;;;;;;;;;;;22.90;56.30;;;;;;4990702;28;19969;-62
2021/09/02 03:52:44;;;;;;;;;;;22.90;56.30;;;;;;4990549;28;19925;-62
2021/09/02 03:55:11;;;;;;;;;;;22.90;56.30;;;;;;4990101;28;20443;-62
2021/09/02 03:57:39;;;;;;;;;;;22.90;56.30;;;;;;4990015;28;20348;-62
2021/09/02 04:00:07;;;;;;;;;;;22.90;56.30;;;;;;4990598;28;20330;-62
2021/09/02 04:02:35;;;;;;;;;;;22.90;56.30;;;;;;4989571;28;19926;-62
2021/09/02 04:05:03;;;;;;;;;;;22.90;56.30;;;;;;4990492;28;19930;-62
2021/09/02 04:07:31;;;;;;;;;;;22.90;56.30;;;;;;4990805;28;19926;-62
2021/09/02 04:09:58;;;;;;;;;;;22.90;56.30;;;;;;4989424;28;19926;-62
2021/09/02 04:12:25;;;;;;;;;;;22.90;56.30;;;;;;4990112;28;19926;-62
2021/09/02 04:14:52;;;;;;;;;;;22.90;56.30;;;;;;4990025;28;19933;-62
2021/09/02 04:17:19;;;;;;;;;;;22.80;56.20;;;;;;4990073;28;19961;-62
2021/09/02 04:19:46;;;;;;;;;;;22.90;56.20;;;;;;4988914;28;20395;-62
2021/09/02 04:22:13;;;;;;;;;;;22.90;56.20;;;;;;4990098;28;19926;-62
2021/09/02 04:24:40;;;;;;;;;;;22.90;56.20;;;;;;4973229;28;19979;-62
2021/09/02 04:27:08;;;;;;;;;;;22.90;56.20;;;;;;4988929;28;19957;-62
2021/09/02 04:29:35;;;;;;;;;;;22.80;56.10;;;;;;4973683;28;19987;-62
2021/09/02 04:32:02;;;;;;;;;;;22.90;56.20;;;;;;4990235;28;20042;-62
2021/09/02 04:34:29;;;;;;;;;;;22.90;56.10;;;;;;4992467;28;19926;-62
2021/09/02 04:36:56;;;;;;;;;;;22.80;56.10;;;;;;4992578;28;19980;-62
2021/09/02 04:39:23;;;;;;;;;;;22.90;56.10;;;;;;4991162;28;20423;-62
2021/09/02 04:41:50;;;;;;;;;;;22.80;56.00;;;;;;4992494;28;20006;-62
2021/09/02 04:44:17;;;;;;;;;;;22.80;56.00;;;;;;4993053;28;19975;-62
2021/09/02 04:46:44;;;;;;;;;;;22.90;56.00;;;;;;4992051;28;20025;-62
2021/09/02 04:49:11;;;;;;;;;;;22.90;56.00;;;;;;4992167;28;19968;-61
2021/09/02 04:51:38;;;;;;;;;;;22.90;56.00;;;;;;4993043;28;19976;-62
2021/09/02 04:54:05;;;;;;;;;;;22.90;56.00;;;;;;4993240;28;19974;-62
2021/09/02 04:56:31;;;;;;;;;;;22.90;56.00;;;;;;4992883;28;19929;-62
2021/09/02 04:58:58;;;;;;;;;;;22.90;55.90;;;;;;4991938;28;19971;-62
2021/09/02 05:01:25;;;;;;;;;;;22.90;55.90;;;;;;4992149;28;20328;-62
2021/09/02 05:03:55;;;;;;;;;;;22.90;55.90;;;;;;4991073;28;21327;-62
2021/09/02 05:06:22;;;;;;;;;;;22.90;55.90;;;;;;4992760;28;19930;-61
2021/09/02 05:08:49;;;;;;;;;;;22.90;55.90;;;;;;4991671;28;19979;-62
2021/09/02 05:11:16;;;;;;;;;;;22.90;55.80;;;;;;4992902;28;19929;-62
2021/09/02 05:13:42;;;;;;;;;;;22.90;55.80;;;;;;4991576;28;19959;-61
2021/09/02 05:16:09;;;;;;;;;;;22.90;55.80;;;;;;4992966;28;19929;-62
2021/09/02 05:18:36;;;;;;;;;;;22.90;55.70;;;;;;4992850;28;19930;-62
2021/09/02 05:21:03;;;;;;;;;;;22.90;55.70;;;;;;4991788;28;19980;-62
2021/09/02 05:23:30;;;;;;;;;;;22.90;55.70;;;;;;4992828;28;19968;-62
2021/09/02 05:25:57;;;;;;;;;;;23.00;55.80;;;;;;4992214;28;20001;-62
2021/09/02 05:28:24;;;;;;;;;;;23.00;55.70;;;;;;4992096;28;20430;-62
2021/09/02 05:30:51;;;;;;;;;;;23.00;55.70;;;;;;4992789;28;19929;-62
2021/09/02 05:33:18;;;;;;;;;;;22.90;55.70;;;;;;4991855;28;19968;-61
2021/09/02 05:35:45;;;;;;;;;;;23.00;55.70;;;;;;4991377;28;19956;-62
2021/09/02 05:38:12;;;;;;;;;;;23.00;55.70;;;;;;4991023;28;19965;-62
2021/09/02 05:40:39;;;;;;;;;;;23.00;55.60;;;;;;4991087;28;20024;-62
2021/09/02 05:43:06;;;;;;;;;;;23.00;55.50;;;;;;4991108;28;19925;-61
2021/09/02 05:45:33;;;;;;;;;;;23.00;55.50;;;;;;4991766;28;19955;-61
2021/09/02 05:48:02;;;;;;;;;;;23.00;55.50;;;;;;4992045;28;19961;-61
2021/09/02 05:50:29;;;;;;;;;;;23.00;55.50;;;;;;4992202;28;20275;-61
2021/09/02 05:52:56;;;;;;;;;;;23.00;55.50;;;;;;4992005;28;20421;-61
2021/09/02 05:55:23;;;;;;;;;;;23.00;55.50;;;;;;4992083;28;19929;-61
2021/09/02 05:57:50;;;;;;;;;;;23.00;55.50;;;;;;4990595;28;19925;-61
2021/09/02 06:00:17;;;;;;;;;;;23.00;55.50;;;;;;4991894;28;19936;-61
2021/09/02 06:02:44;;;;;;;;;;;23.00;55.50;;;;;;4991019;28;19926;-61
2021/09/02 06:05:11;;;;;;;;;;;23.00;55.50;;;;;;4991914;28;19926;-61
2021/09/02 06:07:38;;;;;;;;;;;23.00;55.50;;;;;;4991110;28;20033;-61
2021/09/02 06:10:06;;;;;;;;;;;23.10;55.50;;;;;;4991798;28;20008;-61
2021/09/02 06:12:33;;;;;;;;;;;23.10;55.50;;;;;;4974816;28;19965;-61
2021/09/02 06:15:00;;;;;;;;;;;23.00;55.40;;;;;;4992149;28;19926;-61
2021/09/02 06:17:31;;;;;;;;;;;23.00;55.40;;;;;;4991694;28;19926;-61
2021/09/02 06:19:58;;;;;;;;;;;23.10;55.50;;;;;;4991867;28;19948;-61
2021/09/02 06:22:24;;;;;;;;;;;23.10;55.50;;;;;;4991821;28;19926;-61
2021/09/02 06:24:51;;;;;;;;;;;23.10;55.50;;;;;;4991927;28;20364;-61
2021/09/02 06:27:18;;;;;;;;;;;23.00;55.30;;;;;;4990839;28;19983;-61
2021/09/02 06:29:45;;;;;;;;;;;23.10;55.50;;;;;;4990642;28;19932;-61
2021/09/02 06:32:12;;;;;;;;;;;23.10;55.50;;;;;;4991648;28;19929;-61
2021/09/02 06:34:39;;;;;;;;;;;23.10;55.50;;;;;;4991389;28;19969;-61
2021/09/02 06:37:06;;;;;;;;;;;23.10;55.50;;;;;;4990718;28;20263;-61
2021/09/02 06:39:33;;;;;;;;;;;23.10;55.50;;;;;;4973068;28;19930;-61
2021/09/02 06:42:00;;;;;;;;;;;23.10;55.50;;;;;;4990622;28;19955;-61
2021/09/02 06:44:27;;;;;;;;;;;23.10;55.40;;;;;;4991670;28;20016;-62
2021/09/02 06:46:54;;;;;;;;;;;23.10;55.50;;;;;;4990264;28;19932;-62
2021/09/02 06:49:21;;;;;;;;;;;23.10;55.40;;;;;;4991320;28;19926;-61
2021/09/02 06:51:48;;;;;;;;;;;23.10;55.40;;;;;;4991141;28;20551;-62
2021/09/02 06:54:15;;;;;;;;;;;23.20;55.50;;;;;;4991008;28;19929;-62
2021/09/02 06:56:42;;;;;;;;;;;23.10;55.40;;;;;;4989949;28;19973;-62
2021/09/02 06:59:09;;;;;;;;;;;23.10;55.40;;;;;;4990282;28;19926;-61
2021/09/02 07:01:36;;;;;;;;;;;23.10;55.40;;;;;;4990293;28;19969;-61
2021/09/02 07:04:03;;;;;;;;;;;23.20;55.50;;;;;;4991478;28;20020;-61
2021/09/02 07:06:30;;;;;;;;;;;23.20;55.50;;;;;;4990108;28;20274;-60
2021/09/02 07:08:57;;;;;;;;;;;23.20;55.50;;;;;;4991044;28;19926;-61
2021/09/02 07:11:25;;;;;;;;;;;23.20;55.50;;;;;;4991054;28;20360;-61
2021/09/02 07:13:52;;;;;;;;;;;23.20;55.50;;;;;;4991504;28;20369;-61
2021/09/02 07:16:19;;;;;;;;;;;23.20;55.50;;;;;;4990457;28;19930;-61
2021/09/02 07:18:46;;;;;;;;;;;23.20;55.60;;;;;;4990573;28;19933;-61
2021/09/02 07:21:12;;;;;;;;;;;23.20;55.50;;;;;;4989799;28;19929;-60
2021/09/02 07:23:39;;;;;;;;;;;23.20;55.60;;;;;;4990426;28;20427;-62
2021/09/02 07:26:07;;;;;;;;;;;23.20;55.60;;;;;;4990358;28;19983;-60
2021/09/02 07:28:34;;;;;;;;;;;23.20;55.60;;;;;;4989841;28;19932;-60
2021/09/02 07:31:01;;;;;;;;;;;23.30;55.70;;;;;;4990708;28;19925;-61
2021/09/02 07:33:28;;;;;;;;;;;23.30;55.70;;;;;;4989705;28;19925;-61
2021/09/02 07:35:55;;;;;;;;;;;23.30;55.80;;;;;;4989876;28;19948;-61
2021/09/02 07:38:22;;;;;;;;;;;23.30;55.70;;;;;;4990577;28;19925;-61
2021/09/02 07:40:49;;;;;;;;;;;23.30;55.80;;;;;;4990716;28;19932;-61
2021/09/02 07:43:27;;;;;;;;;;;23.30;55.80;;;;;;4989825;28;20328;-61
2021/09/02 07:45:54;;;;;;;;;;;23.30;55.80;;;;;;4990797;28;19925;-61
2021/09/02 07:48:21;;;;;;;;;;;23.30;55.80;;;;;;4990339;28;19926;-60
2021/09/02 07:50:48;;;;;;;;;;;23.30;55.80;;;;;;4990537;28;19979;-61
2021/09/02 07:53:15;;;;;;;;;;;23.40;56.00;;;;;;4989261;28;19965;-61
2021/09/02 07:55:42;;;;;;;;;;;23.40;56.00;;;;;;4990443;28;20012;-61
2021/09/02 07:58:09;;;;;;;;;;;23.40;56.10;;;;;;4990183;28;19961;-62
2021/09/02 08:00:37;;;;;;;;;;;23.40;55.90;;;;;;4989138;28;20442;-62
2021/09/02 08:03:04;;;;;;;;;;;23.40;56.10;;;;;;4990441;28;19925;-62
2021/09/02 08:05:32;;;;;;;;;;;23.50;56.10;;;;;;4990342;28;20354;-61
2021/09/02 08:07:58;;;;;;;;;;;23.50;56.10;;;;;;4991455;28;19994;-61
2021/09/02 08:10:25;;;;;;;;;;;23.50;56.30;;;;;;4993100;28;19926;-62
2021/09/02 08:12:54;;;;;;;;;;;23.50;56.40;;;;;;4992617;28;20772;-62
2021/09/02 08:15:21;;;;;;;;;;;23.50;56.20;;;;;;4993242;28;19926;-62
2021/09/02 08:17:49;;;;;;;;;;;23.50;56.20;;;;;;4999376;28;19926;-62
2021/09/02 08:20:16;;;;;;;;;;;23.50;56.30;;;;;;4991067;28;20297;-61
2021/09/02 08:22:44;;;;;;;;;;;23.50;56.30;;;;;;4993444;28;20379;-62
2021/09/02 08:25:11;;;;;;;;;;;23.50;56.30;;;;;;4975346;28;19969;-62
2021/09/02 08:27:39;;;;;;;;;;;23.60;56.40;;;;;;4993587;28;19925;-62
2021/09/02 08:30:07;;;;;;;;;;;23.60;56.50;;;;;;4993647;28;19983;-62
2021/09/02 08:32:34;;;;;;;;;;;23.60;56.30;;;;;;4992048;28;19929;-62
2021/09/02 08:35:01;;;;;;;;;;;23.60;56.40;;;;;;4993415;28;20444;-61
2021/09/02 08:37:28;;;;;;;;;;;23.60;56.40;;;;;;4992107;28;19926;-61
2021/09/02 08:39:55;;;;;;;;;;;23.60;56.40;;;;;;4993033;28;19930;-62
2021/09/02 08:42:22;;;;;;;;;;;23.60;56.40;;;;;;4993473;28;19976;-62
2021/09/02 08:44:48;;;;;;;;;;;23.60;56.40;;;;;;4975452;28;20326;-62
2021/09/02 08:47:18;;;;;;;;;;;23.60;56.50;;;;;;4993405;28;19980;-62
2021/09/02 08:49:46;;;;;;;;;;;23.60;56.50;;;;;;4993517;28;20446;-61
2021/09/02 08:52:13;;;;;;;;;;;23.70;56.60;;;;;;4993489;28;19926;-61
2021/09/02 08:54:40;;;;;;;;;;;23.60;56.60;;;;;;4993193;28;19976;-62
2021/09/02 08:57:07;;;;;;;;;;;23.70;56.60;;;;;;4992641;28;20008;-62
2021/09/02 08:59:33;;;;;;;;;;;23.70;56.60;;;;;;4992775;28;19930;-62
2021/09/02 09:02:18;;;;;;;;;;;23.70;56.70;;;;;;4991895;28;20331;-62
2021/09/02 09:04:48;;;;;;;;;;;23.70;56.70;;;;;;4992824;28;20412;-62
2021/09/02 09:07:26;;;;;;;;;;;23.70;56.60;;;;;;4975405;28;20032;-62
2021/09/02 09:09:53;;;;;;;;;;;23.70;56.60;;;;;;4991593;28;20020;-61
2021/09/02 09:12:37;;;;;;;;;;;23.70;56.70;;;;;;4992558;28;20434;-62
2021/09/02 09:15:05;;;;;;;;;;;23.70;56.70;;;;;;4992551;28;19969;-62
2021/09/02 09:17:34;;;;;;;;;;;23.70;56.70;;;;;;4974403;28;19930;-62
2021/09/02 09:20:05;;;;;;;;;;;23.70;56.70;;;;;;4991896;28;19957;-62
2021/09/02 09:22:32;;;;;;;;;;;23.70;56.70;;;;;;4991662;28;19932;-61
2021/09/02 09:25:01;;;;;;;;;;;23.70;56.70;;;;;;4992667;28;19984;-62
2021/09/02 09:27:31;;;;;;;;;;;23.70;56.70;;;;;;4992321;28;19932;-62
2021/09/02 09:30:04;;;;;;;;;;;23.70;56.50;;;;;;4992809;28;20015;-62
2021/09/02 09:32:39;;;;;;;;;;;23.70;56.80;;;;;;4975185;28;20042;-62
2021/09/02 09:35:07;;;;;;;;;;;23.70;56.60;;;;;;4976676;28;20009;-61
2021/09/02 09:37:40;;;;;;;;;;;23.80;56.90;;;;;;4976478;28;19949;-61
2021/09/02 09:40:09;;;;;;;;;;;23.80;56.90;;;;;;4975569;28;19926;-61
2021/09/02 09:42:36;;;;;;;;;;;23.80;56.70;;;;;;4992302;28;20012;-61
2021/09/02 09:45:07;;;;;;;;;;;23.80;56.70;;;;;;4992145;28;19930;-61
2021/09/02 09:47:34;;;;;;;;;;;23.80;56.90;;;;;;4992034;28;20332;-61
2021/09/02 09:50:02;;;;;;;;;;;23.80;56.90;;;;;;4992353;28;20397;-61
2021/09/02 09:52:30;;;;;;;;;;;23.80;56.90;;;;;;4990767;28;19926;-61
2021/09/02 09:55:08;;;;;;;;;;;23.80;56.70;;;;;;4990692;28;19955;-61
2021/09/02 09:57:36;;;;;;;;;;;23.80;56.80;;;;;;4990690;28;19975;-61
2021/09/02 10:00:16;;;;;;;;;;;23.80;56.90;;;;;;4991208;28;19965;-62
2021/09/02 10:02:44;;;;;;;;;;;23.80;56.80;;;;;;4992274;28;20343;-62
2021/09/02 10:05:13;;;;;;;;;;;23.80;56.80;;;;;;4990796;28;19932;-62
2021/09/02 10:07:41;;;;;;;;;;;23.80;56.70;;;;;;4991112;28;20047;-62
2021/09/02 10:10:10;;;;;;;;;;;23.80;56.50;;;;;;4991091;28;20368;-62
2021/09/02 10:12:38;;;;;;;;;;;23.80;56.40;;;;;;4991741;28;19973;-62
2021/09/02 10:15:06;;;;;;;;;;;23.80;56.50;;;;;;4991040;28;20340;-61
2021/09/02 10:17:34;;;;;;;;;;;23.80;56.20;;;;;;4990583;28;20024;-62
2021/09/02 10:20:09;;;;;;;;;;;23.80;56.20;;;;;;4990502;28;20020;-62
2021/09/02 10:22:36;;;;;;;;;;;23.80;56.30;;;;;;4991862;28;19937;-61
2021/09/02 10:25:23;;;;;;;;;;;23.80;56.40;;;;;;4990459;28;19930;-62
2021/09/02 10:27:57;;;;;;;;;;;23.80;56.30;;;;;;4991525;28;20391;-62
2021/09/02 10:30:25;;;;;;;;;;;23.80;55.10;;;;;;4991304;28;20292;-62
2021/09/02 10:32:52;;;;;;;;;;;23.80;54.80;;;;;;4991322;28;20351;-63
2021/09/02 10:35:19;;;;;;;;;;;23.70;54.00;;;;;;4990611;28;19935;-61
2021/09/02 10:37:46;;;;;;;;;;;23.70;54.20;;;;;;4991447;28;19926;-59
2021/09/02 10:40:17;;;;;;;;;;;23.70;54.20;;;;;;4991352;28;19973;-59
2021/09/02 10:42:45;;;;;;;;;;;23.70;55.00;;;;;;4991403;28;19930;-59
2021/09/02 10:45:30;;;;;;;;;;;23.70;55.20;;;;;;4991547;28;19960;-51
2021/09/02 10:48:04;;;;;;;;;;;23.70;53.70;;;;;;4991643;28;19976;-62
2021/09/02 10:50:38;;;;;;;;;;;23.70;54.00;;;;;;4990567;28;19926;-59
2021/09/02 10:53:12;;;;;;;;;;;23.70;54.20;;;;;;4991412;28;19957;-59
2021/09/02 10:55:41;;;;;;;;;;;23.70;54.20;;;;;;4989988;28;19926;-60
2021/09/02 10:58:09;;;;;;;;;;;23.70;54.30;;;;;;4991307;28;19926;-62
2021/09/02 11:00:37;;;;;;;;;;;23.70;54.20;;;;;;4991348;28;19932;-57
2021/09/02 11:03:15;;;;;;;;;;;23.70;54.30;;;;;;4990031;28;19933;-60
2021/09/02 11:05:44;;;;;;;;;;;23.70;54.40;;;;;;4989801;28;19969;-59
2021/09/02 11:08:11;;;;;;;;;;;23.80;54.10;;;;;;4972865;28;19995;-61
2021/09/02 11:10:38;;;;;;;;;;;23.80;54.30;;;;;;4991003;28;19925;-58
2021/09/02 11:13:06;;;;;;;;;;;23.80;53.20;;;;;;4990944;28;19958;-59
2021/09/02 11:15:35;;;;;;;;;;;23.80;53.90;;;;;;4989745;28;19934;-60
2021/09/02 11:18:03;;;;;;;;;;;23.80;53.50;;;;;;4991197;28;19933;-59
2021/09/02 11:20:45;;;;;;;;;;;23.70;53.40;;;;;;4991130;28;20395;-58
2021/09/02 11:23:12;;;;;;;;;;;23.70;53.50;;;;;;4990609;28;19926;-59
2021/09/02 11:25:40;;;;;;;;;;;23.70;53.20;;;;;;4989997;28;19961;-58
2021/09/02 11:28:07;;;;;;;;;;;23.80;53.10;;;;;;4990549;28;20378;-59
2021/09/02 11:30:34;;;;;;;;;;;23.70;53.30;;;;;;4990740;28;19976;-59
2021/09/02 11:33:02;;;;;;;;;;;23.70;53.20;;;;;;4990679;28;20274;-59
2021/09/02 11:35:29;;;;;;;;;;;23.70;53.00;;;;;;4973287;28;20362;-59
2021/09/02 11:37:56;;;;;;;;;;;23.70;52.90;;;;;;4990707;28;19926;-59
2021/09/02 11:40:33;;;;;;;;;;;23.70;52.70;;;;;;4989540;28;19929;-59
2021/09/02 11:43:00;;;;;;;;;;;23.70;51.60;;;;;;4990118;28;20609;-59
2021/09/02 11:45:29;;;;;;;;;;;23.70;51.90;;;;;;4988662;28;20433;-59
2021/09/02 11:48:01;;;;;;;;;;;23.70;51.70;;;;;;4990486;28;19926;-59
2021/09/02 11:50:28;;;;;;;;;;;23.70;51.50;;;;;;4989661;28;19926;-58
2021/09/02 11:52:55;;;;;;;;;;;23.70;51.60;;;;;;4990238;28;20005;-58
2021/09/02 11:55:32;;;;;;;;;;;23.70;51.10;;;;;;4988874;28;20288;-58
2021/09/02 11:58:00;;;;;;;;;;;23.70;50.50;;;;;;4988954;28;20359;-57
2021/09/02 12:00:29;;;;;;;;;;;23.70;50.30;;;;;;4990449;28;19992;-57
2021/09/02 12:02:57;;;;;;;;;;;23.70;50.30;;;;;;4989327;28;20343;-59
2021/09/02 12:05:26;;;;;;;;;;;23.70;50.20;;;;;;4990122;28;19932;-58
2021/09/02 12:07:55;;;;;;;;;;;23.70;50.70;;;;;;4988904;28;19926;-58
2021/09/02 12:10:23;;;;;;;;;;;23.70;50.60;;;;;;4989106;28;19926;-58
2021/09/02 12:12:50;;;;;;;;;;;23.70;50.20;;;;;;4972936;28;20385;-58
2021/09/02 12:15:23;;;;;;;;;;;23.70;51.20;;;;;;4990288;28;19926;-60
2021/09/02 12:18:03;;;;;;;;;;;23.70;51.40;;;;;;4988966;28;20013;-59
2021/09/02 12:20:30;;;;;;;;;;;23.70;50.80;;;;;;4990309;28;19933;-59
2021/09/02 12:22:57;;;;;;;;;;;23.80;50.30;;;;;;4989723;28;19926;-59
2021/09/02 12:25:24;;;;;;;;;;;23.80;50.30;;;;;;4989227;28;19926;-60
2021/09/02 12:27:52;;;;;;;;;;;23.80;50.30;;;;;;4989072;28;19947;-60
2021/09/02 12:30:38;;;;;;;;;;;23.80;50.90;;;;;;4990075;28;19972;-60
2021/09/02 12:33:22;;;;;;;;;;;23.80;50.60;;;;;;4990268;28;19969;-60
2021/09/02 12:35:49;;;;;;;;;;;23.90;50.60;;;;;;4989966;28;19926;-60
2021/09/02 12:38:36;;;;;;;;;;;23.90;50.70;;;;;;4989909;28;20012;-60
2021/09/02 12:41:18;;;;;;;;;;;23.90;51.20;;;;;;4988727;28;19975;-59
2021/09/02 12:44:00;;;;;;;;;;;23.90;51.20;;;;;;4989463;28;20008;-59
2021/09/02 12:46:28;;;;;;;;;;;23.90;51.10;;;;;;4989698;28;19970;-59
2021/09/02 12:49:05;;;;;;;;;;;23.90;51.30;;;;;;4988805;28;19926;-59
2021/09/02 12:51:32;;;;;;;;;;;23.90;51.70;;;;;;4988804;28;19968;-60
2021/09/02 12:53:59;;;;;;;;;;;23.90;51.70;;;;;;4989404;28;19932;-60
2021/09/02 12:56:34;;;;;;;;;;;23.90;50.80;;;;;;4974559;28;19979;-60
2021/09/02 12:59:00;;;;;;;;;;;23.90;50.80;;;;;;4993237;28;20004;-60
2021/09/02 13:01:27;;;;;;;;;;;23.90;51.00;;;;;;4992823;28;19926;-60
2021/09/02 13:03:57;;;;;;;;;;;23.90;51.20;;;;;;4993028;28;19929;-60
2021/09/02 13:06:24;;;;;;;;;;;23.90;51.50;;;;;;4992771;28;19930;-59
2021/09/02 13:08:59;;;;;;;;;;;23.90;51.80;;;;;;4991897;28;19926;-59
2021/09/02 13:11:27;;;;;;;;;;;24.00;51.90;;;;;;4991515;28;19979;-58
2021/09/02 13:13:54;;;;;;;;;;;24.00;52.20;;;;;;4993039;28;19930;-59
2021/09/02 13:16:21;;;;;;;;;;;24.00;50.70;;;;;;4992941;28;20371;-59
2021/09/02 13:18:48;;;;;;;;;;;24.00;51.50;;;;;;4992185;28;19933;-58
2021/09/02 13:21:15;;;;;;;;;;;24.00;51.40;;;;;;4991382;28;20330;-59
2021/09/02 13:23:42;;;;;;;;;;;24.00;51.20;;;;;;4991733;28;20005;-59
2021/09/02 13:26:10;;;;;;;;;;;24.00;50.90;;;;;;4992444;28;19926;-59
2021/09/02 13:28:37;;;;;;;;;;;24.00;50.80;;;;;;4991607;28;19991;-58
2021/09/02 13:31:04;;;;;;;;;;;24.00;51.20;;;;;;4991680;28;20425;-59
2021/09/02 13:33:31;;;;;;;;;;;24.00;50.50;;;;;;4992753;28;19929;-58
2021/09/02 13:35:58;;;;;;;;;;;24.00;50.50;;;;;;4990340;28;20029;-59
2021/09/02 13:38:25;;;;;;;;;;;24.00;50.10;;;;;;4991477;28;20437;-59
2021/09/02 13:40:52;;;;;;;;;;;23.90;50.00;;;;;;4991995;28;19969;-58
2021/09/02 13:43:19;;;;;;;;;;;23.90;50.70;;;;;;4992342;28;20021;-58
2021/09/02 13:45:46;;;;;;;;;;;23.90;50.40;;;;;;4973934;28;19957;-59
2021/09/02 13:48:13;;;;;;;;;;;23.90;50.10;;;;;;4992296;28;19926;-58
2021/09/02 13:50:40;;;;;;;;;;;23.90;50.30;;;;;;4991896;28;20005;-58
2021/09/02 13:53:09;;;;;;;;;;;23.90;50.70;;;;;;4990656;28;20013;-58
2021/09/02 13:55:36;;;;;;;;;;;24.00;50.90;;;;;;4991680;28;20412;-58
2021/09/02 13:58:03;;;;;;;;;;;24.00;50.90;;;;;;4991041;28;19948;-59
2021/09/02 14:00:30;;;;;;;;;;;24.00;51.40;;;;;;4992013;28;19925;-58
2021/09/02 14:02:57;;;;;;;;;;;24.00;51.40;;;;;;4990785;28;20361;-58
2021/09/02 14:05:24;;;;;;;;;;;24.00;51.00;;;;;;4991838;28;19926;-58
2021/09/02 14:07:51;;;;;;;;;;;24.00;50.80;;;;;;4991737;28;20091;-58
2021/09/02 14:10:18;;;;;;;;;;;24.00;50.70;;;;;;4990540;28;19929;-59
2021/09/02 14:12:45;;;;;;;;;;;24.00;50.60;;;;;;4990937;28;19988;-59
2021/09/02 14:15:13;;;;;;;;;;;24.00;50.60;;;;;;4973284;28;19933;-63
2021/09/02 14:17:41;;;;;;;;;;;24.00;50.80;;;;;;4991599;28;19926;-60
2021/09/02 14:20:09;;;;;;;;;;;24.00;50.30;;;;;;4990848;28;19926;-59
2021/09/02 14:22:37;;;;;;;;;;;24.00;50.50;;;;;;4974224;28;20005;-60